createdAt,value
2019-01-11T00:02:12.023Z,100024.41
2019-01-11T00:04:43.110Z,100024.80
2019-01-11T00:07:14.102Z,100025.62
2019-01-11T00:09:44.052Z,100036.91
2019-01-11T00:12:13.550Z,100016.08
2019-01-11T00:14:50.844Z,100013.47
2019-01-11T00:17:22.548Z,100022.06
2019-01-11T00:19:52.181Z,100017.77
2019-01-11T00:22:25.789Z,100021.73
2019-01-11T00:25:07.213Z,100018.28
2019-01-11T00:27:36.436Z,100011.80
2019-01-11T00:30:09.942Z,100010.47
2019-01-11T00:32:40.480Z,100004.78
2019-01-11T00:35:11.575Z,100007.84
2019-01-11T00:37:44.902Z,100005.17
2019-01-11T00:40:19.364Z,100004.70
2019-01-11T00:42:54.370Z,100008.91
2019-01-11T00:45:28.177Z,99996.41
2019-01-11T00:47:59.679Z,99994.83
2019-01-11T00:50:33.906Z,99997.03
2019-01-11T00:53:06.282Z,99994.39
2019-01-11T00:55:40.103Z,99991.38
2019-01-11T00:58:14.339Z,99989.17
2019-01-11T01:00:47.726Z,99992.80
2019-01-11T01:03:21.195Z,99984.91
2019-01-11T01:05:56.126Z,99984.08
2019-01-11T01:08:33.923Z,99979.34
2019-01-11T01:11:04.516Z,99980.58
2019-01-11T01:13:33.831Z,99979.29
2019-01-11T01:16:05.713Z,99978.49
2019-01-11T01:18:37.048Z,99974.57
2019-01-11T01:21:06.840Z,99973.20
2019-01-11T01:23:38.392Z,99971.39
2019-01-11T01:26:10.573Z,99972.91
2019-01-11T01:28:40.309Z,99984.30
2019-01-11T01:31:10.598Z,99978.98
2019-01-11T01:33:41.219Z,99976.52
2019-01-11T01:36:10.884Z,99967.69
2019-01-11T01:38:40.965Z,99978.55
2019-01-11T01:41:11.679Z,99979.05
2019-01-11T01:43:40.935Z,99978.12
2019-01-11T01:46:10.526Z,99985.42
2019-01-11T01:48:40.341Z,99979.52
2019-01-11T01:51:09.570Z,99983.44
2019-01-11T01:53:42.462Z,99985.27
2019-01-11T01:56:12.646Z,99984.30
2019-01-11T01:58:42.214Z,99991.63
2019-01-11T02:01:12.166Z,99992.94
2019-01-11T02:03:46.507Z,99992.42
2019-01-11T02:06:16.019Z,99994.11
2019-01-11T02:08:47.124Z,99986.30
2019-01-11T02:11:17.947Z,99982.31
2019-01-11T02:13:59.324Z,99976.72
2019-01-11T02:16:30.416Z,99977.68
2019-01-11T02:19:02.630Z,99979.84
2019-01-11T02:21:33.685Z,99978.77
2019-01-11T02:24:03.174Z,99972.75
2019-01-11T02:26:34.322Z,99969.58
2019-01-11T02:29:13.219Z,99963.36
2019-01-11T02:31:46.399Z,99967.80
2019-01-11T02:34:18.944Z,99963.92
2019-01-11T02:36:48.274Z,99962.98
2019-01-11T02:39:17.740Z,99962.81
2019-01-11T02:41:48.460Z,99959.83
2019-01-11T02:44:20.936Z,99961.13
2019-01-11T02:46:51.843Z,99957.66
2019-01-11T02:49:23.446Z,99949.75
2019-01-11T02:52:00.021Z,99949.77
2019-01-11T02:54:31.453Z,99948.05
2019-01-11T02:57:07.668Z,99940.10
2019-01-11T02:59:40.386Z,99938.78
2019-01-11T03:02:12.374Z,99931.34
2019-01-11T03:04:43.251Z,99934.85
2019-01-11T03:07:15.613Z,99935.44
2019-01-11T03:09:45.945Z,99928.80
2019-01-11T03:12:16.929Z,99943.61
2019-01-11T03:14:49.745Z,99939.64
2019-01-11T03:17:21.301Z,99937.00
2019-01-11T03:19:57.658Z,99938.77
2019-01-11T03:22:30.253Z,99937.14
2019-01-11T03:25:05.440Z,99927.91
2019-01-11T03:27:37.375Z,99933.97
2019-01-11T03:30:14.860Z,99926.58
2019-01-11T03:32:48.255Z,99923.05
2019-01-11T03:35:24.757Z,99917.91
2019-01-11T03:37:56.360Z,99915.66
2019-01-11T03:40:31.102Z,99919.08
2019-01-11T03:43:02.572Z,99918.28
2019-01-11T03:45:34.973Z,99916.29
2019-01-11T03:48:09.141Z,99914.84
2019-01-11T03:50:41.144Z,99907.97
2019-01-11T03:53:23.127Z,99912.21
2019-01-11T03:55:54.112Z,99909.36
2019-01-11T03:58:27.593Z,99913.22
2019-01-11T04:00:58.010Z,99912.80
2019-01-11T04:03:36.091Z,99904.92
2019-01-11T04:06:11.332Z,99904.65
2019-01-11T04:08:40.871Z,99898.08
2019-01-11T04:11:10.554Z,99901.98
2019-01-11T04:13:40.402Z,99901.14
2019-01-11T04:16:10.215Z,99899.41
2019-01-11T04:19:00.924Z,99898.56
2019-01-11T04:21:30.746Z,99894.68
2019-01-11T04:24:00.020Z,99897.72
2019-01-11T04:26:30.705Z,99899.48
2019-01-11T04:28:59.925Z,99896.90
2019-01-11T04:31:36.476Z,99909.08
2019-01-11T04:34:07.182Z,99906.81
2019-01-11T04:36:41.760Z,99906.41
2019-01-11T04:39:13.559Z,99901.59
2019-01-11T04:41:45.283Z,99908.52
2019-01-11T04:44:22.862Z,99903.81
2019-01-11T04:46:54.119Z,99899.00
2019-01-11T04:49:26.905Z,99903.16
2019-01-11T04:52:01.545Z,99899.34
2019-01-11T04:54:32.906Z,99904.55
2019-01-11T04:57:05.013Z,99900.24
2019-01-11T04:59:34.471Z,99901.87
2019-01-11T05:02:05.150Z,99902.05
2019-01-11T05:04:36.285Z,99903.75
2019-01-11T05:07:08.417Z,99893.95
2019-01-11T05:09:40.107Z,99891.21
2019-01-11T05:12:13.308Z,99892.00
2019-01-11T05:14:45.766Z,99886.34
2019-01-11T05:17:16.765Z,99888.94
2019-01-11T05:19:48.092Z,99889.39
2019-01-11T05:22:17.655Z,99883.89
2019-01-11T05:24:59.988Z,99889.88
2019-01-11T05:27:30.961Z,99886.33
2019-01-11T05:30:01.706Z,99888.86
2019-01-11T05:32:32.816Z,99886.30
2019-01-11T05:35:03.472Z,99886.34
2019-01-11T05:37:34.666Z,99880.09
2019-01-11T05:40:08.289Z,99880.51
2019-01-11T05:42:40.941Z,99881.48
2019-01-11T05:45:13.333Z,99879.75
2019-01-11T05:47:42.585Z,99874.16
2019-01-11T05:50:14.874Z,99870.74
2019-01-11T05:52:44.173Z,99867.52
2019-01-11T05:55:50.157Z,99862.84
2019-01-11T05:58:38.695Z,99864.25
2019-01-11T06:01:10.004Z,99866.37
2019-01-11T06:03:44.244Z,99865.05
2019-01-11T06:06:21.541Z,99861.54
2019-01-11T06:09:14.448Z,99860.31
2019-01-11T06:11:46.349Z,99858.49
2019-01-11T06:14:24.637Z,99859.33
2019-01-11T06:16:58.538Z,99856.80
2019-01-11T06:19:31.357Z,99853.66
2019-01-11T06:22:06.127Z,99851.55
2019-01-11T06:24:43.704Z,99845.12
2019-01-11T06:27:21.803Z,99844.73
2019-01-11T06:29:53.855Z,99835.56
2019-01-11T06:32:28.420Z,99843.70
2019-01-11T06:35:05.081Z,99840.19
2019-01-11T06:37:40.913Z,99844.86
2019-01-11T06:40:14.089Z,99841.87
2019-01-11T06:43:16.668Z,99843.07
2019-01-11T06:45:49.864Z,99836.66
2019-01-11T06:48:43.304Z,99838.72
2019-01-11T06:51:21.182Z,99839.58
2019-01-11T06:53:52.249Z,99841.37
2019-01-11T06:56:26.222Z,99839.08
2019-01-11T06:59:21.840Z,99843.88
2019-01-11T07:01:52.157Z,99839.23
2019-01-11T07:04:31.568Z,99836.45
2019-01-11T07:07:04.076Z,99840.02
2019-01-11T07:09:35.369Z,99840.83
2019-01-11T07:12:20.427Z,99842.13
2019-01-11T07:15:16.230Z,99838.64
2019-01-11T07:18:08.838Z,99843.03
2019-01-11T07:20:43.004Z,99847.81
2019-01-11T07:23:14.853Z,99849.06
2019-01-11T07:25:51.907Z,99845.38
2019-01-11T07:28:23.299Z,99840.72
2019-01-11T07:31:16.294Z,99841.63
2019-01-11T07:33:51.493Z,99843.66
2019-01-11T07:36:35.646Z,99835.88
2019-01-11T07:39:27.951Z,99834.63
2019-01-11T07:41:57.808Z,99837.59
2019-01-11T07:44:28.668Z,99842.02
2019-01-11T07:47:08.823Z,99843.74
2019-01-11T07:49:42.626Z,99844.52
2019-01-11T07:52:18.532Z,99845.42
2019-01-11T07:54:51.347Z,99844.03
2019-01-11T07:57:21.602Z,99841.52
2019-01-11T07:59:55.044Z,99842.02
2019-01-11T08:02:24.825Z,99832.91
2019-01-11T08:04:57.981Z,99835.44
2019-01-11T08:07:27.678Z,99834.98
2019-01-11T08:09:59.224Z,99835.48
2019-01-11T08:12:29.689Z,99843.56
2019-01-11T08:15:01.382Z,99840.53
2019-01-11T08:17:31.811Z,99838.81
2019-01-11T08:20:01.664Z,99839.23
2019-01-11T08:22:37.868Z,99847.05
2019-01-11T08:25:11.847Z,99844.10
2019-01-11T08:27:46.255Z,99843.98
2019-01-11T08:30:26.978Z,99835.00
2019-01-11T08:33:18.687Z,99841.16
2019-01-11T08:35:59.752Z,99838.45
2019-01-11T08:38:57.439Z,99831.53
2019-01-11T08:41:31.168Z,99832.77
2019-01-11T08:44:12.305Z,99832.72
2019-01-11T08:46:42.119Z,99836.25
2019-01-11T08:49:23.354Z,99833.48
2019-01-11T08:52:00.259Z,99836.34
2019-01-11T08:54:30.889Z,99837.14
2019-01-11T08:57:05.460Z,99835.73
2019-01-11T08:59:35.416Z,99831.25
2019-01-11T09:02:10.983Z,99831.16
2019-01-11T09:04:41.864Z,99824.22
2019-01-11T09:07:16.952Z,99837.77
2019-01-11T09:09:50.593Z,99837.48
2019-01-11T09:12:22.360Z,99832.45
2019-01-11T09:14:54.063Z,99836.84
2019-01-11T09:17:23.620Z,99839.24
2019-01-11T09:19:53.327Z,99835.19
2019-01-11T09:22:31.350Z,99828.81
2019-01-11T09:25:10.044Z,99831.28
2019-01-11T09:27:55.583Z,99834.97
2019-01-11T09:30:26.077Z,99832.90
2019-01-11T09:32:55.856Z,99829.00
2019-01-11T09:35:29.328Z,99832.00
2019-01-11T09:37:59.926Z,99834.48
2019-01-11T09:40:29.935Z,99834.00
2019-01-11T09:43:02.670Z,99831.88
2019-01-11T09:45:32.612Z,99829.33
2019-01-11T09:48:25.924Z,99826.64
2019-01-11T09:51:00.839Z,99822.41
2019-01-11T09:53:35.292Z,99828.16
2019-01-11T09:56:17.436Z,99837.93
2019-01-11T09:58:47.440Z,99824.69
2019-01-11T10:01:18.558Z,99823.58
2019-01-11T10:03:48.896Z,99823.88
2019-01-11T10:06:21.039Z,99831.77
2019-01-11T10:08:50.835Z,99822.99
2019-01-11T10:11:23.919Z,99824.27
2019-01-11T10:14:03.829Z,99821.59
2019-01-11T10:16:35.488Z,99825.69
2019-01-11T10:19:06.471Z,99820.16
2019-01-11T10:21:35.915Z,99818.41
2019-01-11T10:24:05.796Z,99814.42
2019-01-11T10:26:36.274Z,99819.94
2019-01-11T10:29:06.339Z,99824.38
2019-01-11T10:31:36.666Z,99818.56
2019-01-11T10:34:06.345Z,99818.86
2019-01-11T10:36:36.415Z,99807.14
2019-01-11T10:39:09.634Z,99805.63
2019-01-11T10:41:39.639Z,99804.66
2019-01-11T10:44:09.217Z,99790.17
2019-01-11T10:46:49.057Z,99795.75
2019-01-11T10:49:17.843Z,99791.01
2019-01-11T10:51:48.183Z,99798.77
2019-01-11T10:54:36.400Z,99790.89
2019-01-11T10:57:05.934Z,99793.56
2019-01-11T10:59:35.286Z,99788.84
2019-01-11T11:02:04.904Z,99800.44
2019-01-11T11:04:35.181Z,99795.03
2019-01-11T11:07:05.540Z,99792.64
2019-01-11T11:09:38.241Z,99783.72
2019-01-11T11:12:11.318Z,99782.13
2019-01-11T11:14:40.944Z,99775.22
2019-01-11T11:17:11.124Z,99778.10
2019-01-11T11:19:44.122Z,99783.27
2019-01-11T11:22:17.178Z,99782.58
2019-01-11T11:24:49.860Z,99778.41
2019-01-11T11:27:19.367Z,99771.87
2019-01-11T11:29:48.949Z,99771.78
2019-01-11T11:32:29.265Z,99765.42
2019-01-11T11:34:58.973Z,99769.53
2019-01-11T11:37:29.677Z,99764.29
2019-01-11T11:40:03.060Z,99763.09
2019-01-11T11:42:37.470Z,99761.38
2019-01-11T11:45:07.668Z,99764.84
2019-01-11T11:47:37.796Z,99763.54
2019-01-11T11:50:08.894Z,99758.73
2019-01-11T11:52:39.945Z,99759.63
2019-01-11T11:55:12.893Z,99761.85
2019-01-11T11:57:42.448Z,99753.80
2019-01-11T12:00:17.403Z,99756.77
2019-01-11T12:02:46.661Z,99755.24
2019-01-11T12:05:22.667Z,99745.28
2019-01-11T12:07:54.654Z,99752.22
2019-01-11T12:10:24.043Z,99746.42
2019-01-11T12:12:54.416Z,99742.86
2019-01-11T12:15:23.988Z,99740.78
2019-01-11T12:17:53.505Z,99742.06
2019-01-11T12:20:33.203Z,99739.09
2019-01-11T12:23:05.197Z,99725.16
2019-01-11T12:25:34.724Z,99730.35
2019-01-11T12:28:04.348Z,99730.80
2019-01-11T12:30:34.226Z,99726.83
2019-01-11T12:33:07.064Z,99722.50
2019-01-11T12:35:39.252Z,99722.41
2019-01-11T12:38:13.675Z,99723.68
2019-01-11T12:40:41.808Z,99720.66
2019-01-11T12:43:11.481Z,99719.64
2019-01-11T12:45:41.035Z,99717.84
2019-01-11T12:48:10.295Z,99711.31
2019-01-11T12:50:42.220Z,99708.77
2019-01-11T12:53:12.749Z,99703.52
2019-01-11T12:55:43.154Z,99705.01
2019-01-11T12:58:13.144Z,99703.39
2019-01-11T13:00:42.516Z,99702.84
2019-01-11T13:03:15.139Z,99692.75
2019-01-11T13:05:45.232Z,99693.79
2019-01-11T13:08:47.368Z,99689.53
2019-01-11T13:11:25.563Z,99676.86
2019-01-11T13:14:14.217Z,99672.19
2019-01-11T13:17:05.547Z,99682.00
2019-01-11T13:20:08.441Z,99678.47
2019-01-11T13:23:13.361Z,99675.83
2019-01-11T13:25:52.574Z,99674.34
2019-01-11T13:28:29.234Z,99679.60
2019-01-11T13:31:06.671Z,99678.78
2019-01-11T13:33:43.665Z,99671.31
2019-01-11T13:36:20.976Z,99678.63
2019-01-11T13:39:01.494Z,99687.75
2019-01-11T13:41:55.235Z,99683.31
2019-01-11T13:44:28.615Z,99681.28
2019-01-11T13:47:02.810Z,99683.37
2019-01-11T13:50:04.320Z,99687.28
2019-01-11T13:52:40.696Z,99680.38
2019-01-11T13:55:27.962Z,99682.80
2019-01-11T13:57:58.102Z,99686.53
2019-01-11T14:00:29.147Z,99693.48
2019-01-11T14:03:30.640Z,99693.38
2019-01-11T14:06:05.851Z,99696.26
2019-01-11T14:08:40.290Z,99691.21
2019-01-11T14:11:09.963Z,99689.28
2019-01-11T14:13:48.917Z,99679.36
2019-01-11T14:16:36.520Z,99677.09
2019-01-11T14:19:07.546Z,99679.36
2019-01-11T14:21:37.668Z,99675.38
2019-01-11T14:24:07.187Z,99679.08
2019-01-11T14:26:37.598Z,99676.23
2019-01-11T14:29:09.407Z,99680.97
2019-01-11T14:31:38.725Z,99678.33
2019-01-11T14:34:08.672Z,99683.21
2019-01-11T14:36:38.728Z,99676.16
2019-01-11T14:39:10.255Z,99670.97
2019-01-11T14:41:39.559Z,99672.44
2019-01-11T14:44:08.820Z,99666.51
2019-01-11T14:46:38.041Z,99664.72
2019-01-11T14:49:11.275Z,99657.24
2019-01-11T14:51:40.883Z,99661.42
2019-01-11T14:54:14.942Z,99655.48
2019-01-11T14:56:44.556Z,99651.09
2019-01-11T14:59:16.918Z,99654.67
2019-01-11T15:01:47.351Z,99649.55
2019-01-11T15:04:16.963Z,99647.14
2019-01-11T15:06:47.064Z,99649.45
2019-01-11T15:09:16.701Z,99653.78
2019-01-11T15:11:45.924Z,99646.02
2019-01-11T15:14:15.473Z,99645.42
2019-01-11T15:16:44.741Z,99640.90
2019-01-11T15:19:15.660Z,99650.24
2019-01-11T15:21:46.394Z,99652.68
2019-01-11T15:24:16.382Z,99661.41
2019-01-11T15:26:46.523Z,99656.31
2019-01-11T15:29:15.909Z,99664.55
2019-01-11T15:31:45.751Z,99674.03
2019-01-11T15:34:16.746Z,99670.74
2019-01-11T15:36:46.420Z,99662.02
2019-01-11T15:39:19.549Z,99660.78
2019-01-11T15:41:56.304Z,99664.48
2019-01-11T15:44:59.010Z,99662.28
2019-01-11T15:47:29.297Z,99661.38
2019-01-11T15:50:25.086Z,99653.98
2019-01-11T15:53:06.474Z,99659.23
2019-01-11T15:55:37.897Z,99656.73
2019-01-11T15:58:09.935Z,99659.23
2019-01-11T16:00:53.379Z,99659.62
2019-01-11T16:03:34.405Z,99669.81
2019-01-11T16:06:36.093Z,99659.89
2019-01-11T16:10:02.612Z,99657.41
2019-01-11T16:13:14.046Z,99658.31
2019-01-11T16:16:30.328Z,99652.98
2019-01-11T16:19:03.346Z,99648.88
2019-01-11T16:21:33.545Z,99649.28
2019-01-11T16:24:09.385Z,99647.63
2019-01-11T16:26:39.538Z,99651.48
2019-01-11T16:29:09.697Z,99644.85
2019-01-11T16:31:44.028Z,99645.30
2019-01-11T16:34:15.733Z,99648.32
2019-01-11T16:36:45.850Z,99648.70
2019-01-11T16:39:26.041Z,99649.17
2019-01-11T16:41:55.899Z,99648.70
2019-01-11T16:44:25.812Z,99657.31
2019-01-11T16:46:55.105Z,99651.23
2019-01-11T16:49:24.350Z,99642.17
2019-01-11T16:51:54.193Z,99640.94
2019-01-11T16:54:23.443Z,99638.48
2019-01-11T16:56:54.836Z,99649.00
2019-01-11T16:59:26.847Z,99648.63
2019-01-11T17:02:10.811Z,99646.94
2019-01-11T17:04:40.191Z,99640.83
2019-01-11T17:07:11.441Z,99650.31
2019-01-11T17:09:51.580Z,99638.86
2019-01-11T17:12:27.641Z,99645.31
2019-01-11T17:15:02.478Z,99645.39
2019-01-11T17:17:35.246Z,99649.23
2019-01-11T17:20:06.478Z,99641.41
2019-01-11T17:22:39.257Z,99642.59
2019-01-11T17:25:09.664Z,99643.08
2019-01-11T17:27:46.271Z,99646.84
2019-01-11T17:30:21.418Z,99631.41
2019-01-11T17:32:51.636Z,99633.12
2019-01-11T17:35:50.032Z,99632.26
2019-01-11T17:38:41.549Z,99633.68
2019-01-11T17:41:13.362Z,99640.09
2019-01-11T17:43:49.588Z,99630.62
2019-01-11T17:46:20.701Z,99638.00
2019-01-11T17:48:49.968Z,99639.80
2019-01-11T17:51:22.139Z,99638.38
2019-01-11T17:53:52.081Z,99643.16
2019-01-11T17:56:21.307Z,99642.30
2019-01-11T17:58:51.269Z,99643.98
2019-01-11T18:01:26.224Z,99637.97
2019-01-11T18:03:55.796Z,99638.79
2019-01-11T18:06:26.809Z,99637.11
2019-01-11T18:09:04.366Z,99636.29
2019-01-11T18:11:41.381Z,99637.66
2019-01-11T18:14:10.669Z,99642.85
2019-01-11T18:16:59.731Z,99641.44
2019-01-11T18:19:47.756Z,99640.91
2019-01-11T18:22:19.306Z,99644.31
2019-01-11T18:24:50.741Z,99641.52
2019-01-11T18:27:21.619Z,99643.08
2019-01-11T18:30:09.761Z,99648.75
2019-01-11T18:32:39.759Z,99647.06
2019-01-11T18:35:09.977Z,99639.09
2019-01-11T18:37:45.783Z,99637.08
2019-01-11T18:40:18.202Z,99640.84
2019-01-11T18:43:09.050Z,99639.87
2019-01-11T18:45:56.406Z,99632.52
2019-01-11T18:48:26.915Z,99633.72
2019-01-11T18:50:56.311Z,99635.33
2019-01-11T18:53:26.661Z,99638.94
2019-01-11T18:55:56.803Z,99640.62
2019-01-11T18:58:31.365Z,99643.08
2019-01-11T19:01:01.158Z,99639.95
2019-01-11T19:03:47.493Z,99642.89
2019-01-11T19:06:31.361Z,99645.62
2019-01-11T19:09:05.468Z,99651.25
2019-01-11T19:11:53.403Z,99648.64
2019-01-11T19:14:26.899Z,99649.68
2019-01-11T19:16:59.257Z,99648.55
2019-01-11T19:19:32.610Z,99652.70
2019-01-11T19:22:05.553Z,99646.95
2019-01-11T19:24:36.418Z,99646.55
2019-01-11T19:27:14.719Z,99656.51
2019-01-11T19:29:51.501Z,99643.59
2019-01-11T19:32:24.267Z,99637.14
2019-01-11T19:35:11.673Z,99638.94
2019-01-11T19:38:02.478Z,99641.62
2019-01-11T19:40:59.374Z,99640.27
2019-01-11T19:43:56.213Z,99641.01
2019-01-11T19:46:37.224Z,99646.23
2019-01-11T19:49:17.491Z,99647.50
2019-01-11T19:52:15.081Z,99649.73
2019-01-11T19:54:52.115Z,99657.77
2019-01-11T19:57:37.846Z,99661.23
2019-01-11T20:00:19.591Z,99651.34
2019-01-11T20:02:50.779Z,99643.99
2019-01-11T20:05:21.918Z,99640.18
2019-01-11T20:07:54.032Z,99648.28
2019-01-11T20:10:35.425Z,99647.02
2019-01-11T20:13:09.629Z,99640.18
2019-01-11T20:15:45.633Z,99643.92
2019-01-11T20:18:31.845Z,99645.75
2019-01-11T20:21:04.726Z,99642.45
2019-01-11T20:23:37.043Z,99646.12
2019-01-11T20:26:32.804Z,99646.81
2019-01-11T20:29:04.562Z,99646.81
2019-01-11T20:31:38.216Z,99644.48
2019-01-11T20:34:08.642Z,99651.72
2019-01-11T20:36:48.294Z,99656.87
2019-01-11T20:39:19.258Z,99654.19
2019-01-11T20:41:52.221Z,99660.20
2019-01-11T20:44:23.338Z,99655.34
2019-01-11T20:47:08.387Z,99656.88
2019-01-11T20:50:06.717Z,99655.38
2019-01-11T20:52:48.336Z,99656.42
2019-01-11T20:55:27.294Z,99661.53
2019-01-11T20:58:11.164Z,99663.59
2019-01-11T21:00:45.848Z,99659.27
2019-01-11T21:03:19.148Z,99661.98
2019-01-11T21:06:08.783Z,99663.63
2019-01-11T21:09:01.357Z,99669.33
2019-01-11T21:11:35.132Z,99663.38
2019-01-11T21:14:06.653Z,99664.23
2019-01-11T21:16:36.256Z,99670.39
2019-01-11T21:19:08.396Z,99672.42
2019-01-11T21:22:04.124Z,99675.45
2019-01-11T21:25:00.177Z,99681.08
2019-01-11T21:27:48.513Z,99675.83
2019-01-11T21:30:45.007Z,99673.35
2019-01-11T21:33:23.200Z,99659.99
2019-01-11T21:36:01.368Z,99661.36
2019-01-11T21:38:36.012Z,99667.99
2019-01-11T21:41:12.487Z,99669.70
2019-01-11T21:43:44.049Z,99668.95
2019-01-11T21:46:14.289Z,99671.02
2019-01-11T21:48:45.895Z,99674.03
2019-01-11T21:51:15.432Z,99667.06
2019-01-11T21:53:44.679Z,99675.16
2019-01-11T21:56:14.253Z,99667.77
2019-01-11T21:58:45.938Z,99670.31
2019-01-11T22:01:29.303Z,99671.66
2019-01-11T22:04:02.079Z,99673.74
2019-01-11T22:06:33.606Z,99685.91
2019-01-11T22:09:08.409Z,99675.98
2019-01-11T22:11:38.358Z,99680.38
2019-01-11T22:14:09.141Z,99678.22
2019-01-11T22:16:39.949Z,99679.75
2019-01-11T22:19:10.304Z,99685.98
2019-01-11T22:21:39.613Z,99691.98
2019-01-11T22:24:09.154Z,99689.93
2019-01-11T22:26:38.425Z,99696.87
2019-01-11T22:29:08.749Z,99696.91
2019-01-11T22:31:38.308Z,99694.84
2019-01-11T22:34:08.632Z,99694.81
2019-01-11T22:36:37.731Z,99694.70
2019-01-11T22:39:09.286Z,99685.42
2019-01-11T22:41:38.889Z,99701.68
2019-01-11T22:44:08.137Z,99697.30
2019-01-11T22:46:37.764Z,99690.42
2019-01-11T22:49:07.825Z,99678.09
2019-01-11T22:51:37.083Z,99686.61
2019-01-11T22:54:10.323Z,99692.14
2019-01-11T22:56:37.313Z,99699.73
2019-01-11T22:59:07.339Z,99688.39
2019-01-11T23:01:50.851Z,99690.25
2019-01-11T23:04:21.376Z,99690.15
2019-01-11T23:07:19.726Z,99691.86
2019-01-11T23:09:55.772Z,99689.18
2019-01-11T23:12:45.997Z,99688.22
2019-01-11T23:15:23.128Z,99689.08
2019-01-11T23:18:19.040Z,99689.93
2019-01-11T23:20:50.830Z,99689.93
2019-01-11T23:23:20.854Z,99693.81
2019-01-11T23:25:50.086Z,99689.52
2019-01-11T23:28:19.393Z,99691.06
2019-01-11T23:30:48.630Z,99694.86
2019-01-11T23:33:17.875Z,99687.33
2019-01-11T23:35:47.106Z,99693.22
2019-01-11T23:38:16.364Z,99694.45
2019-01-11T23:40:45.625Z,99695.42
2019-01-11T23:43:14.891Z,99697.59
2019-01-11T23:45:44.664Z,99682.42
2019-01-11T23:48:13.777Z,99689.12
2019-01-11T23:50:43.385Z,99686.38
2019-01-11T23:53:13.008Z,99693.31
2019-01-11T23:55:42.270Z,99693.69
2019-01-11T23:58:11.539Z,99686.23
